createdAt,value
2023-02-19T00:01:42.197Z,5.34
2023-02-19T00:03:57.785Z,5.34
2023-02-19T00:06:13.390Z,5.34
2023-02-19T00:08:31.528Z,5.37
2023-02-19T00:10:47.076Z,5.38
2023-02-19T00:13:05.153Z,5.37
2023-02-19T00:15:23.234Z,5.40
2023-02-19T00:17:38.832Z,5.43
2023-02-19T00:19:56.891Z,5.45
2023-02-19T00:22:14.975Z,5.46
2023-02-19T00:24:30.547Z,5.49
2023-02-19T00:26:44.139Z,5.53
2023-02-19T00:29:03.208Z,5.55
2023-02-19T00:31:21.413Z,5.55
2023-02-19T00:33:36.908Z,5.56
2023-02-19T00:35:52.452Z,5.55
2023-02-19T00:38:08.032Z,5.57
2023-02-19T00:40:23.630Z,5.53
2023-02-19T00:42:39.210Z,5.55
2023-02-19T00:44:57.516Z,5.53
2023-02-19T00:47:12.888Z,5.52
2023-02-19T00:49:30.988Z,5.52
2023-02-19T00:51:47.581Z,5.49
2023-02-19T00:54:05.672Z,5.49
2023-02-19T00:56:26.347Z,5.49
2023-02-19T00:58:41.835Z,5.50
2023-02-19T01:00:56.492Z,5.48
2023-02-19T01:03:14.549Z,5.45
2023-02-19T01:05:32.665Z,5.45
2023-02-19T01:07:49.262Z,5.41
2023-02-19T01:10:07.293Z,5.40
2023-02-19T01:12:27.888Z,5.37
2023-02-19T01:14:45.953Z,5.32
2023-02-19T01:17:04.108Z,5.31
2023-02-19T01:19:22.224Z,5.27
2023-02-19T01:21:37.959Z,5.17
2023-02-19T01:23:53.336Z,5.10
2023-02-19T01:26:11.436Z,5.02
2023-02-19T01:28:29.540Z,4.98
2023-02-19T01:30:47.629Z,4.96
2023-02-19T01:33:08.218Z,4.95
2023-02-19T01:35:26.289Z,4.89
2023-02-19T01:37:42.728Z,4.91
2023-02-19T01:39:58.297Z,4.89
2023-02-19T01:42:15.573Z,4.86
2023-02-19T01:44:29.157Z,4.84
2023-02-19T01:46:48.145Z,4.80
2023-02-19T01:49:05.304Z,4.76
2023-02-19T01:51:20.940Z,4.73
2023-02-19T01:53:37.469Z,4.70
2023-02-19T01:55:54.561Z,4.64
2023-02-19T01:58:10.242Z,4.59
2023-02-19T02:00:25.726Z,4.57
2023-02-19T02:02:41.330Z,4.54
2023-02-19T02:04:56.906Z,4.52
2023-02-19T02:07:11.481Z,4.51
2023-02-19T02:09:27.603Z,4.51
2023-02-19T02:11:45.174Z,4.47
2023-02-19T02:14:03.547Z,4.50
2023-02-19T02:16:18.954Z,4.51
2023-02-19T02:18:36.940Z,4.51
2023-02-19T02:20:51.495Z,4.47
2023-02-19T02:23:09.584Z,4.47
2023-02-19T02:25:27.676Z,4.47
2023-02-19T02:27:45.775Z,4.46
2023-02-19T02:30:01.363Z,4.44
2023-02-19T02:32:16.978Z,4.43
2023-02-19T02:34:35.013Z,4.44
2023-02-19T02:36:50.648Z,4.43
2023-02-19T02:39:06.233Z,4.43
2023-02-19T02:41:24.260Z,4.42
2023-02-19T02:43:39.849Z,4.43
2023-02-19T02:45:57.975Z,4.40
2023-02-19T02:48:16.020Z,4.39
2023-02-19T02:50:34.156Z,4.36
2023-02-19T02:52:52.191Z,4.37
2023-02-19T02:55:13.112Z,4.36
2023-02-19T02:57:29.536Z,4.36
2023-02-19T02:59:43.936Z,4.37
2023-02-19T03:02:02.252Z,4.34
2023-02-19T03:04:18.622Z,4.36
2023-02-19T03:06:36.718Z,4.39
2023-02-19T03:08:57.304Z,4.36
2023-02-19T03:11:12.877Z,4.36
2023-02-19T03:13:31.147Z,4.37
2023-02-19T03:15:50.041Z,4.37
2023-02-19T03:18:04.626Z,4.37
2023-02-19T03:20:19.196Z,4.37
2023-02-19T03:22:37.326Z,4.36
2023-02-19T03:24:53.980Z,4.34
2023-02-19T03:27:08.449Z,4.33
2023-02-19T03:29:23.053Z,4.25
2023-02-19T03:31:38.687Z,4.25
2023-02-19T03:33:56.771Z,4.19
2023-02-19T03:36:11.308Z,4.18
2023-02-19T03:38:29.378Z,4.15
2023-02-19T03:40:47.643Z,4.08
2023-02-19T03:43:08.104Z,4.01
2023-02-19T03:45:27.066Z,3.92
2023-02-19T03:47:46.896Z,3.83
2023-02-19T03:50:04.864Z,3.85
2023-02-19T03:52:20.454Z,3.83
2023-02-19T03:54:38.590Z,3.80
2023-02-19T03:56:59.240Z,3.78
2023-02-19T03:59:17.259Z,3.75
2023-02-19T04:01:35.299Z,3.76
2023-02-19T04:03:49.914Z,3.70
2023-02-19T04:06:07.947Z,3.68
2023-02-19T04:08:26.044Z,3.67
2023-02-19T04:10:41.677Z,3.62
2023-02-19T04:13:02.272Z,3.61
2023-02-19T04:15:17.797Z,3.46
2023-02-19T04:17:32.428Z,3.44
2023-02-19T04:19:50.458Z,3.47
2023-02-19T04:22:05.595Z,3.42
2023-02-19T04:24:21.149Z,3.40
2023-02-19T04:26:39.248Z,3.40
2023-02-19T04:28:54.841Z,3.39
2023-02-19T04:31:09.820Z,3.34
2023-02-19T04:33:30.440Z,3.34
2023-02-19T04:35:45.938Z,3.34
2023-02-19T04:38:02.461Z,3.31
2023-02-19T04:40:17.060Z,3.30
2023-02-19T04:42:32.648Z,3.31
2023-02-19T04:44:50.753Z,3.27
2023-02-19T04:47:06.335Z,3.27
2023-02-19T04:49:25.328Z,3.27
2023-02-19T04:51:39.959Z,3.28
2023-02-19T04:53:55.562Z,3.27
2023-02-19T04:56:11.461Z,3.25
2023-02-19T04:58:27.329Z,3.27
2023-02-19T05:00:42.901Z,3.20
2023-02-19T05:02:58.504Z,3.21
2023-02-19T05:05:12.098Z,3.21
2023-02-19T05:07:25.729Z,3.20
2023-02-19T05:09:37.777Z,3.16
2023-02-19T05:11:53.344Z,3.20
2023-02-19T05:14:05.427Z,3.16
2023-02-19T05:16:20.010Z,3.09
2023-02-19T05:18:35.613Z,3.06
2023-02-19T05:20:49.174Z,3.10
2023-02-19T05:23:07.272Z,3.13
2023-02-19T05:25:23.832Z,3.13
2023-02-19T05:27:37.452Z,3.15
2023-02-19T05:29:51.019Z,3.16
2023-02-19T05:32:07.645Z,3.15
2023-02-19T05:34:28.197Z,3.13
2023-02-19T05:36:42.765Z,3.07
2023-02-19T05:38:58.557Z,3.07
2023-02-19T05:41:14.033Z,3.02
2023-02-19T05:43:29.582Z,3.00
2023-02-19T05:45:43.261Z,2.97
2023-02-19T05:47:55.348Z,2.95
2023-02-19T05:50:08.944Z,2.91
2023-02-19T05:52:24.554Z,2.88
2023-02-19T05:54:38.112Z,2.89
2023-02-19T05:56:56.198Z,2.89
2023-02-19T05:59:09.822Z,2.88
2023-02-19T06:01:25.385Z,2.89
2023-02-19T06:03:39.103Z,2.88
2023-02-19T06:05:54.550Z,2.88
2023-02-19T06:08:11.703Z,2.87
2023-02-19T06:10:27.303Z,2.87
2023-02-19T06:12:42.888Z,2.89
2023-02-19T06:14:58.500Z,2.84
2023-02-19T06:17:14.052Z,2.85
2023-02-19T06:19:27.666Z,2.84
2023-02-19T06:21:43.276Z,2.77
2023-02-19T06:23:58.863Z,2.74
2023-02-19T06:26:14.515Z,2.73
2023-02-19T06:28:30.069Z,2.77
2023-02-19T06:30:45.671Z,2.77
2023-02-19T06:33:03.729Z,2.84
2023-02-19T06:35:21.855Z,2.84
2023-02-19T06:37:37.551Z,2.84
2023-02-19T06:39:52.983Z,2.84
2023-02-19T06:42:11.129Z,2.85
2023-02-19T06:44:26.650Z,2.85
2023-02-19T06:46:42.268Z,2.82
2023-02-19T06:48:57.864Z,2.84
2023-02-19T06:51:15.900Z,2.87
2023-02-19T06:53:31.532Z,2.91
2023-02-19T06:55:45.098Z,2.97
2023-02-19T06:58:06.356Z,2.97
2023-02-19T07:00:27.479Z,3.02
2023-02-19T07:02:48.174Z,3.03
2023-02-19T07:05:10.073Z,3.06
2023-02-19T07:07:29.090Z,3.09
2023-02-19T07:09:50.261Z,3.13
2023-02-19T07:13:47.538Z,3.25
2023-02-19T07:16:01.207Z,3.27
2023-02-19T07:18:17.733Z,3.23
2023-02-19T07:20:35.814Z,3.20
2023-02-19T07:22:53.911Z,3.21
2023-02-19T07:25:10.818Z,3.21
2023-02-19T07:27:29.870Z,3.24
2023-02-19T07:35:17.149Z,3.25
2023-02-19T07:37:35.310Z,3.25
2023-02-19T07:39:50.816Z,3.27
2023-02-19T07:42:06.393Z,3.27
2023-02-19T07:44:21.958Z,3.30
2023-02-19T07:46:40.063Z,3.31
2023-02-19T07:48:58.129Z,3.34
2023-02-19T07:51:13.979Z,3.44
2023-02-19T07:53:28.315Z,3.47
2023-02-19T07:55:43.892Z,3.50
2023-02-19T07:57:59.512Z,3.57
2023-02-19T08:00:12.566Z,3.60
2023-02-19T08:02:28.151Z,3.62
2023-02-19T08:04:43.745Z,3.61
2023-02-19T08:07:01.832Z,3.61
2023-02-19T08:09:17.440Z,3.67
2023-02-19T08:11:35.489Z,3.68
2023-02-19T08:13:49.179Z,3.70
2023-02-19T08:16:16.333Z,3.71
2023-02-19T08:18:20.338Z,3.70
2023-02-19T08:20:38.459Z,3.64
2023-02-19T08:22:56.558Z,3.65
2023-02-19T08:23:56.496Z,3.64
2023-02-19T08:26:18.605Z,3.72
2023-02-19T08:28:35.685Z,3.82
2023-02-19T08:30:53.800Z,3.90
2023-02-19T08:33:09.343Z,4.01
2023-02-19T08:35:29.950Z,4.07
2023-02-19T08:37:45.574Z,4.07
2023-02-19T08:40:01.149Z,4.10
2023-02-19T08:42:16.734Z,4.03
2023-02-19T08:44:34.823Z,4.04
2023-02-19T08:46:55.419Z,4.06
2023-02-19T08:49:12.034Z,4.12
2023-02-19T08:51:30.098Z,4.26
2023-02-19T08:53:48.138Z,4.44
2023-02-19T08:56:01.732Z,4.51
2023-02-19T08:58:19.805Z,4.64
2023-02-19T09:00:35.490Z,4.76
2023-02-19T09:02:53.721Z,4.83
2023-02-19T09:05:10.470Z,4.89
2023-02-19T09:07:23.728Z,4.96
2023-02-19T09:09:38.301Z,5.02
2023-02-19T09:11:53.921Z,5.09
2023-02-19T09:14:09.485Z,5.13
2023-02-19T09:16:28.720Z,5.23
2023-02-19T09:18:45.264Z,5.35
2023-02-19T09:21:03.223Z,5.50
2023-02-19T09:23:21.369Z,5.35
2023-02-19T09:25:47.885Z,5.30
2023-02-19T09:28:03.517Z,5.38
2023-02-19T09:30:19.111Z,5.38
2023-02-19T09:32:34.682Z,5.20
2023-02-19T09:34:52.754Z,5.20
2023-02-19T09:37:08.417Z,5.12
2023-02-19T09:39:26.492Z,5.10
2023-02-19T09:41:47.062Z,5.17
2023-02-19T09:44:02.728Z,5.13
2023-02-19T09:46:20.879Z,5.41
2023-02-19T09:48:38.902Z,5.50
2023-02-19T09:50:56.967Z,5.57
2023-02-19T09:53:11.558Z,5.75
2023-02-19T09:55:27.154Z,5.77
2023-02-19T09:57:42.757Z,5.53
2023-02-19T09:59:55.835Z,5.64
2023-02-19T10:02:13.893Z,5.73
2023-02-19T10:04:30.527Z,5.81
2023-02-19T10:06:46.430Z,5.89
2023-02-19T10:09:04.529Z,5.82
2023-02-19T10:11:17.580Z,5.75
2023-02-19T10:13:33.212Z,5.88
2023-02-19T10:15:48.848Z,5.82
2023-02-19T10:18:08.765Z,5.82
2023-02-19T10:20:23.597Z,5.75
2023-02-19T10:22:41.572Z,5.78
2023-02-19T10:24:55.251Z,6.19
2023-02-19T10:27:10.315Z,6.44
2023-02-19T10:29:25.891Z,6.76
2023-02-19T10:31:45.107Z,6.80
2023-02-19T10:34:03.078Z,6.41
2023-02-19T10:36:17.635Z,6.21
2023-02-19T10:38:30.763Z,6.71
2023-02-19T10:40:46.337Z,6.90
2023-02-19T10:43:04.458Z,6.79
2023-02-19T10:45:22.547Z,6.80
2023-02-19T10:47:37.129Z,7.22
2023-02-19T10:49:51.731Z,7.71
2023-02-19T10:52:09.825Z,7.60
2023-02-19T10:54:27.923Z,7.34
2023-02-19T10:56:45.937Z,7.78
2023-02-19T10:59:01.557Z,7.66
2023-02-19T11:01:16.118Z,7.45
2023-02-19T11:03:34.239Z,8.00
2023-02-19T11:05:49.838Z,8.02
2023-02-19T11:17:35.706Z,6.81
2023-02-19T11:59:16.298Z,6.71
2023-02-19T12:07:49.738Z,6.94
2023-02-19T12:29:58.334Z,7.17
2023-02-19T12:31:47.540Z,7.60
2023-02-19T12:34:07.417Z,7.93
2023-02-19T12:36:28.334Z,8.00
2023-02-19T12:38:44.948Z,7.89
2023-02-19T12:41:03.038Z,7.75
2023-02-19T12:43:23.641Z,7.55
2023-02-19T12:45:41.768Z,7.72
2023-02-19T12:48:02.805Z,8.03
2023-02-19T12:50:21.152Z,8.21
2023-02-19T12:53:42.981Z,8.33
2023-02-19T12:56:49.339Z,8.15
2023-02-19T13:00:44.225Z,8.02
2023-02-19T13:03:00.322Z,7.77
2023-02-19T13:05:22.695Z,7.38
2023-02-19T13:07:51.590Z,7.19
2023-02-19T13:14:40.593Z,6.98
2023-02-19T13:16:58.821Z,7.05
2023-02-19T13:19:16.387Z,7.04
2023-02-19T13:22:45.364Z,6.97
2023-02-19T13:25:03.559Z,6.98
2023-02-19T13:27:20.793Z,7.04
2023-02-19T13:33:15.371Z,6.68
2023-02-19T13:35:33.115Z,6.59
2023-02-19T13:37:53.834Z,6.53
2023-02-19T13:40:14.481Z,6.58
2023-02-19T13:42:33.897Z,6.62
2023-02-19T13:44:55.833Z,6.61
2023-02-19T13:47:08.222Z,6.62
2023-02-19T13:49:27.335Z,6.71
2023-02-19T13:51:45.495Z,6.77
2023-02-19T13:54:05.923Z,6.90
2023-02-19T13:56:26.692Z,7.05
2023-02-19T13:58:47.108Z,7.29
2023-02-19T14:01:07.752Z,7.45
2023-02-19T14:03:25.796Z,7.50
2023-02-19T14:05:46.432Z,7.49
2023-02-19T14:08:04.533Z,7.41
2023-02-19T14:10:25.360Z,7.41
2023-02-19T14:12:44.543Z,7.42
2023-02-19T14:15:03.630Z,7.40
2023-02-19T14:17:24.631Z,7.40
2023-02-19T14:19:43.439Z,7.31
2023-02-19T14:22:00.029Z,7.34
2023-02-19T14:24:20.589Z,7.34
2023-02-19T14:26:41.188Z,7.31
2023-02-19T14:28:59.354Z,7.26
2023-02-19T14:31:20.998Z,7.26
2023-02-19T14:33:41.258Z,7.13
2023-02-19T14:36:02.767Z,6.98
2023-02-19T14:38:21.927Z,6.84
2023-02-19T14:40:39.755Z,6.71
2023-02-19T14:43:01.281Z,6.61
2023-02-19T14:45:21.302Z,6.51
2023-02-19T14:47:36.906Z,6.46
2023-02-19T14:49:57.316Z,6.44
2023-02-19T14:52:14.122Z,6.32
2023-02-19T14:54:34.671Z,6.32
2023-02-19T14:56:56.416Z,6.32
2023-02-19T15:24:48.689Z,6.07
2023-02-19T15:31:41.327Z,5.71
2023-02-19T16:14:33.444Z,4.89
2023-02-19T16:28:38.534Z,4.19
2023-02-19T16:30:52.152Z,3.96
2023-02-19T16:33:10.192Z,3.70
2023-02-19T16:35:28.525Z,3.40
2023-02-19T16:37:47.469Z,3.21
2023-02-19T16:40:04.263Z,3.02
2023-02-19T16:42:25.638Z,2.88
2023-02-19T16:44:42.436Z,2.71
2023-02-19T16:47:38.845Z,2.49
2023-02-19T16:49:59.733Z,2.34
2023-02-19T16:54:56.230Z,2.19
2023-02-19T16:58:55.125Z,2.02
2023-02-19T17:53:03.548Z,0.64
2023-02-19T18:27:17.745Z,0.25
2023-02-19T18:29:43.036Z,0.27
2023-02-19T18:35:34.908Z,0.27
2023-02-19T20:21:20.158Z,-0.60
2023-02-19T20:26:55.860Z,-0.60
2023-02-19T20:29:12.844Z,-0.62
2023-02-19T20:32:37.861Z,-0.72
2023-02-19T20:34:59.371Z,-0.73
2023-02-19T20:48:22.593Z,-0.72
2023-02-19T20:50:40.851Z,-0.69
2023-02-19T20:53:01.604Z,-0.68
2023-02-19T20:55:16.719Z,-0.69
2023-02-19T20:57:33.500Z,-0.77
2023-02-19T20:59:54.011Z,-0.77
2023-02-19T21:02:14.705Z,-0.80
2023-02-19T21:04:34.891Z,-0.81
2023-02-19T21:06:55.752Z,-0.77
2023-02-19T21:09:10.073Z,-0.75
2023-02-19T21:11:28.384Z,-0.73
2023-02-19T21:13:46.551Z,-0.73
2023-02-19T21:16:04.377Z,-0.73
2023-02-19T21:18:25.434Z,-0.72
2023-02-19T21:20:46.544Z,-0.73
2023-02-19T21:23:07.397Z,-0.81
2023-02-19T21:25:28.035Z,-0.81
2023-02-19T21:27:49.165Z,-0.84
2023-02-19T21:30:08.979Z,-0.87
2023-02-19T21:32:25.605Z,-0.83
2023-02-19T21:34:46.094Z,-0.77
2023-02-19T21:37:06.893Z,-0.65
2023-02-19T21:39:23.294Z,-0.57
2023-02-19T21:41:44.192Z,-0.50
2023-02-19T21:44:04.478Z,-0.44
2023-02-19T21:46:25.414Z,-0.36
2023-02-19T21:48:45.970Z,-0.33
2023-02-19T21:51:06.695Z,-0.26
2023-02-19T21:53:25.370Z,-0.22
2023-02-19T21:55:57.501Z,-0.19
2023-02-19T21:58:04.106Z,-0.16
2023-02-19T22:00:24.824Z,-0.13
2023-02-19T22:02:46.146Z,0.05
2023-02-19T22:05:06.319Z,0.05
2023-02-19T22:07:25.412Z,-0.08
2023-02-19T22:09:46.067Z,-0.22
2023-02-19T22:12:07.356Z,-0.31
2023-02-19T22:14:28.185Z,-0.34
2023-02-19T22:16:48.847Z,-0.39
2023-02-19T22:19:07.508Z,-0.42
2023-02-19T22:21:27.594Z,-0.45
2023-02-19T22:23:48.619Z,-0.33
2023-02-19T22:26:06.627Z,-0.27
2023-02-19T22:28:23.229Z,-0.33
2023-02-19T22:30:39.899Z,-0.30
2023-02-19T22:33:00.451Z,-0.33
2023-02-19T22:35:21.149Z,-0.36
2023-02-19T22:37:36.377Z,-0.41
2023-02-19T22:39:57.468Z,-0.37
2023-02-19T22:42:15.841Z,-0.37
2023-02-19T22:44:32.434Z,-0.37
2023-02-19T22:46:52.883Z,-0.34
2023-02-19T22:49:14.051Z,-0.37
2023-02-19T22:51:35.063Z,-0.37
2023-02-19T22:53:55.854Z,-0.41
2023-02-19T22:56:14.024Z,-0.37
2023-02-19T22:58:32.041Z,-0.47
2023-02-19T23:00:51.125Z,-0.50
2023-02-19T23:03:11.578Z,-0.55
2023-02-19T23:05:32.362Z,-0.59
2023-02-19T23:07:52.891Z,-0.55
2023-02-19T23:10:13.548Z,-0.57
2023-02-19T23:13:24.645Z,-0.55
2023-02-19T23:15:39.528Z,-0.52
2023-02-19T23:17:57.352Z,-0.55
2023-02-19T23:20:15.421Z,-0.62
2023-02-19T23:22:36.001Z,-0.62
2023-02-19T23:24:57.584Z,-0.65
2023-02-19T23:27:14.950Z,-0.65
2023-02-19T23:29:32.959Z,-0.65
2023-02-19T23:31:54.094Z,-0.63
2023-02-19T23:34:11.748Z,-0.60
2023-02-19T23:36:29.959Z,-0.55
2023-02-19T23:38:50.814Z,-0.55
2023-02-19T23:41:06.024Z,-0.52
2023-02-19T23:43:24.183Z,-0.51
2023-02-19T23:45:44.839Z,-0.52
2023-02-19T23:48:03.029Z,-0.57
2023-02-19T23:50:21.035Z,-0.59
2023-02-19T23:52:39.196Z,-0.57
2023-02-19T23:54:55.681Z,-0.60
2023-02-19T23:57:16.218Z,-0.59
2023-02-19T23:59:37.653Z,-0.66
